sensor_id;sensor_type;location;lat;lon;timestamp;P1;durP1;ratioP1;P2;durP2;ratioP2
17598;SDS011;8918;52.092;5.232;2023-02-28T00:01:11;5.27;;;3.30;;
17598;SDS011;8918;52.092;5.232;2023-02-28T00:03:38;6.07;;;3.30;;
17598;SDS011;8918;52.092;5.232;2023-02-28T00:06:04;8.33;;;3.40;;
17598;SDS011;8918;52.092;5.232;2023-02-28T00:08:31;4.93;;;3.20;;
17598;SDS011;8918;52.092;5.232;2023-02-28T00:11:03;5.10;;;3.10;;
17598;SDS011;8918;52.092;5.232;2023-02-28T00:13:31;7.63;;;3.17;;
17598;SDS011;8918;52.092;5.232;2023-02-28T00:16:02;6.80;;;3.00;;
17598;SDS011;8918;52.092;5.232;2023-02-28T00:18:32;8.63;;;3.17;;
17598;SDS011;8918;52.092;5.232;2023-02-28T00:20:58;5.77;;;3.63;;
17598;SDS011;8918;52.092;5.232;2023-02-28T00:23:24;6.53;;;3.50;;
17598;SDS011;8918;52.092;5.232;2023-02-28T00:25:50;5.50;;;3.73;;
17598;SDS011;8918;52.092;5.232;2023-02-28T00:28:16;8.93;;;3.70;;
17598;SDS011;8918;52.092;5.232;2023-02-28T00:30:41;6.07;;;3.80;;
17598;SDS011;8918;52.092;5.232;2023-02-28T00:33:07;6.10;;;3.50;;
17598;SDS011;8918;52.092;5.232;2023-02-28T00:35:32;8.17;;;3.47;;
17598;SDS011;8918;52.092;5.232;2023-02-28T00:37:58;7.97;;;3.80;;
17598;SDS011;8918;52.092;5.232;2023-02-28T00:40:24;5.87;;;3.70;;
17598;SDS011;8918;52.092;5.232;2023-02-28T00:42:49;5.80;;;3.30;;
17598;SDS011;8918;52.092;5.232;2023-02-28T00:45:15;5.60;;;3.43;;
17598;SDS011;8918;52.092;5.232;2023-02-28T00:47:40;6.73;;;3.70;;
17598;SDS011;8918;52.092;5.232;2023-02-28T00:50:06;6.63;;;3.47;;
17598;SDS011;8918;52.092;5.232;2023-02-28T00:52:32;5.70;;;3.30;;
17598;SDS011;8918;52.092;5.232;2023-02-28T00:54:58;7.97;;;3.40;;
17598;SDS011;8918;52.092;5.232;2023-02-28T00:57:23;8.10;;;3.53;;
17598;SDS011;8918;52.092;5.232;2023-02-28T00:59:49;6.10;;;3.17;;
17598;SDS011;8918;52.092;5.232;2023-02-28T01:02:14;7.93;;;3.50;;
17598;SDS011;8918;52.092;5.232;2023-02-28T01:04:40;5.87;;;3.23;;
17598;SDS011;8918;52.092;5.232;2023-02-28T01:07:05;6.13;;;3.27;;
17598;SDS011;8918;52.092;5.232;2023-02-28T01:09:31;6.60;;;3.27;;
17598;SDS011;8918;52.092;5.232;2023-02-28T01:11:57;4.93;;;3.07;;
17598;SDS011;8918;52.092;5.232;2023-02-28T01:14:22;7.50;;;3.50;;
17598;SDS011;8918;52.092;5.232;2023-02-28T01:16:48;6.27;;;3.50;;
17598;SDS011;8918;52.092;5.232;2023-02-28T01:19:13;5.87;;;3.30;;
17598;SDS011;8918;52.092;5.232;2023-02-28T01:21:39;7.50;;;3.77;;
17598;SDS011;8918;52.092;5.232;2023-02-28T01:24:05;6.13;;;3.33;;
17598;SDS011;8918;52.092;5.232;2023-02-28T01:26:32;5.47;;;3.40;;
17598;SDS011;8918;52.092;5.232;2023-02-28T01:28:57;6.17;;;3.20;;
17598;SDS011;8918;52.092;5.232;2023-02-28T01:31:24;7.13;;;3.20;;
17598;SDS011;8918;52.092;5.232;2023-02-28T01:33:49;9.10;;;3.30;;
17598;SDS011;8918;52.092;5.232;2023-02-28T01:36:19;7.43;;;3.13;;
17598;SDS011;8918;52.092;5.232;2023-02-28T01:38:47;6.60;;;3.27;;
17598;SDS011;8918;52.092;5.232;2023-02-28T01:41:18;3.83;;;3.00;;
17598;SDS011;8918;52.092;5.232;2023-02-28T01:46:11;7.50;;;3.40;;
17598;SDS011;8918;52.092;5.232;2023-02-28T01:48:42;6.83;;;3.17;;
17598;SDS011;8918;52.092;5.232;2023-02-28T01:51:13;7.43;;;3.20;;
17598;SDS011;8918;52.092;5.232;2023-02-28T01:53:44;5.67;;;3.30;;
17598;SDS011;8918;52.092;5.232;2023-02-28T01:56:15;8.97;;;3.73;;
17598;SDS011;8918;52.092;5.232;2023-02-28T01:58:46;4.87;;;3.03;;
17598;SDS011;8918;52.092;5.232;2023-02-28T02:01:12;5.77;;;3.40;;
17598;SDS011;8918;52.092;5.232;2023-02-28T02:03:46;6.53;;;3.23;;
17598;SDS011;8918;52.092;5.232;2023-02-28T02:06:20;8.63;;;3.33;;
17598;SDS011;8918;52.092;5.232;2023-02-28T02:08:48;5.10;;;3.30;;
17598;SDS011;8918;52.092;5.232;2023-02-28T02:11:13;4.33;;;3.10;;
17598;SDS011;8918;52.092;5.232;2023-02-28T02:20:13;5.63;;;3.20;;
17598;SDS011;8918;52.092;5.232;2023-02-28T02:36:42;6.23;;;3.37;;
17598;SDS011;8918;52.092;5.232;2023-02-28T02:39:31;7.07;;;3.57;;
17598;SDS011;8918;52.092;5.232;2023-02-28T02:42:09;7.83;;;3.50;;
17598;SDS011;8918;52.092;5.232;2023-02-28T02:44:41;7.27;;;3.40;;
17598;SDS011;8918;52.092;5.232;2023-02-28T02:47:14;5.07;;;3.17;;
17598;SDS011;8918;52.092;5.232;2023-02-28T02:49:44;7.07;;;3.67;;
17598;SDS011;8918;52.092;5.232;2023-02-28T02:52:14;6.13;;;3.57;;
17598;SDS011;8918;52.092;5.232;2023-02-28T02:54:46;5.80;;;3.17;;
17598;SDS011;8918;52.092;5.232;2023-02-28T02:57:17;6.77;;;3.10;;
17598;SDS011;8918;52.092;5.232;2023-02-28T02:59:47;6.03;;;3.10;;
17598;SDS011;8918;52.092;5.232;2023-02-28T03:02:14;9.40;;;3.50;;
17598;SDS011;8918;52.092;5.232;2023-02-28T03:04:56;4.57;;;3.07;;
17598;SDS011;8918;52.092;5.232;2023-02-28T03:07:25;4.53;;;3.43;;
17598;SDS011;8918;52.092;5.232;2023-02-28T03:09:53;5.37;;;3.10;;
17598;SDS011;8918;52.092;5.232;2023-02-28T03:12:21;7.27;;;3.43;;
17598;SDS011;8918;52.092;5.232;2023-02-28T03:15:11;8.13;;;3.20;;
17598;SDS011;8918;52.092;5.232;2023-02-28T03:20:27;4.70;;;3.17;;
17598;SDS011;8918;52.092;5.232;2023-02-28T03:23:17;5.40;;;3.30;;
17598;SDS011;8918;52.092;5.232;2023-02-28T03:25:56;5.73;;;3.50;;
17598;SDS011;8918;52.092;5.232;2023-02-28T03:31:30;5.03;;;3.13;;
17598;SDS011;8918;52.092;5.232;2023-02-28T03:34:11;5.10;;;2.90;;
17598;SDS011;8918;52.092;5.232;2023-02-28T03:36:53;4.03;;;3.20;;
17598;SDS011;8918;52.092;5.232;2023-02-28T03:39:37;7.83;;;3.37;;
17598;SDS011;8918;52.092;5.232;2023-02-28T03:42:33;4.37;;;3.00;;
17598;SDS011;8918;52.092;5.232;2023-02-28T03:45:05;4.10;;;3.20;;
17598;SDS011;8918;52.092;5.232;2023-02-28T03:47:41;6.60;;;2.93;;
17598;SDS011;8918;52.092;5.232;2023-02-28T03:52:50;7.30;;;3.47;;
17598;SDS011;8918;52.092;5.232;2023-02-28T03:55:26;4.57;;;3.47;;
17598;SDS011;8918;52.092;5.232;2023-02-28T03:58:03;4.47;;;3.07;;
17598;SDS011;8918;52.092;5.232;2023-02-28T04:00:43;6.77;;;3.27;;
17598;SDS011;8918;52.092;5.232;2023-02-28T04:03:13;4.43;;;3.20;;
17598;SDS011;8918;52.092;5.232;2023-02-28T04:06:12;5.47;;;3.33;;
17598;SDS011;8918;52.092;5.232;2023-02-28T04:08:33;6.23;;;3.17;;
17598;SDS011;8918;52.092;5.232;2023-02-28T04:11:41;5.57;;;3.37;;
17598;SDS011;8918;52.092;5.232;2023-02-28T04:14:02;5.33;;;3.57;;
17598;SDS011;8918;52.092;5.232;2023-02-28T04:16:28;5.40;;;3.40;;
17598;SDS011;8918;52.092;5.232;2023-02-28T04:18:55;6.87;;;3.33;;
17598;SDS011;8918;52.092;5.232;2023-02-28T04:21:27;7.00;;;4.13;;
17598;SDS011;8918;52.092;5.232;2023-02-28T04:23:53;6.27;;;3.77;;
17598;SDS011;8918;52.092;5.232;2023-02-28T04:26:19;6.70;;;4.17;;
17598;SDS011;8918;52.092;5.232;2023-02-28T04:28:44;6.70;;;3.93;;
17598;SDS011;8918;52.092;5.232;2023-02-28T04:31:10;8.77;;;4.47;;
17598;SDS011;8918;52.092;5.232;2023-02-28T04:33:36;6.87;;;4.20;;
17598;SDS011;8918;52.092;5.232;2023-02-28T04:36:02;6.33;;;3.90;;
17598;SDS011;8918;52.092;5.232;2023-02-28T04:38:31;8.40;;;4.10;;
17598;SDS011;8918;52.092;5.232;2023-02-28T04:40:58;5.37;;;3.90;;
17598;SDS011;8918;52.092;5.232;2023-02-28T04:43:25;4.73;;;3.70;;
17598;SDS011;8918;52.092;5.232;2023-02-28T04:45:52;7.77;;;4.03;;
17598;SDS011;8918;52.092;5.232;2023-02-28T04:48:21;6.20;;;3.37;;
17598;SDS011;8918;52.092;5.232;2023-02-28T04:50:52;3.90;;;3.50;;
17598;SDS011;8918;52.092;5.232;2023-02-28T04:53:17;7.57;;;3.40;;
17598;SDS011;8918;52.092;5.232;2023-02-28T04:55:44;5.03;;;3.30;;
17598;SDS011;8918;52.092;5.232;2023-02-28T04:58:10;4.93;;;3.53;;
17598;SDS011;8918;52.092;5.232;2023-02-28T05:00:36;4.93;;;3.20;;
17598;SDS011;8918;52.092;5.232;2023-02-28T05:03:02;5.57;;;3.03;;
17598;SDS011;8918;52.092;5.232;2023-02-28T05:05:27;4.23;;;3.13;;
17598;SDS011;8918;52.092;5.232;2023-02-28T05:07:53;4.10;;;3.17;;
17598;SDS011;8918;52.092;5.232;2023-02-28T05:10:20;6.60;;;3.30;;
17598;SDS011;8918;52.092;5.232;2023-02-28T05:12:46;4.13;;;2.93;;
17598;SDS011;8918;52.092;5.232;2023-02-28T05:15:13;4.80;;;2.90;;
17598;SDS011;8918;52.092;5.232;2023-02-28T05:17:40;4.17;;;3.23;;
17598;SDS011;8918;52.092;5.232;2023-02-28T05:20:06;4.50;;;3.10;;
17598;SDS011;8918;52.092;5.232;2023-02-28T05:22:35;5.03;;;3.07;;
17598;SDS011;8918;52.092;5.232;2023-02-28T05:25:02;3.90;;;3.00;;
17598;SDS011;8918;52.092;5.232;2023-02-28T05:27:29;4.13;;;2.90;;
17598;SDS011;8918;52.092;5.232;2023-02-28T05:29:55;5.47;;;3.20;;
17598;SDS011;8918;52.092;5.232;2023-02-28T05:32:21;5.93;;;3.27;;
17598;SDS011;8918;52.092;5.232;2023-02-28T05:34:46;6.53;;;3.50;;
17598;SDS011;8918;52.092;5.232;2023-02-28T05:37:12;4.27;;;3.13;;
17598;SDS011;8918;52.092;5.232;2023-02-28T05:39:38;5.70;;;3.30;;
17598;SDS011;8918;52.092;5.232;2023-02-28T05:42:04;4.90;;;3.30;;
17598;SDS011;8918;52.092;5.232;2023-02-28T05:44:31;5.40;;;3.50;;
17598;SDS011;8918;52.092;5.232;2023-02-28T05:46:57;6.93;;;3.73;;
17598;SDS011;8918;52.092;5.232;2023-02-28T05:49:22;4.97;;;3.57;;
17598;SDS011;8918;52.092;5.232;2023-02-28T05:51:48;6.57;;;3.90;;
17598;SDS011;8918;52.092;5.232;2023-02-28T05:54:13;5.00;;;3.50;;
17598;SDS011;8918;52.092;5.232;2023-02-28T05:56:39;4.77;;;3.90;;
17598;SDS011;8918;52.092;5.232;2023-02-28T05:59:08;6.50;;;3.60;;
17598;SDS011;8918;52.092;5.232;2023-02-28T06:01:39;5.07;;;3.70;;
17598;SDS011;8918;52.092;5.232;2023-02-28T06:04:13;5.60;;;3.70;;
17598;SDS011;8918;52.092;5.232;2023-02-28T06:06:43;6.27;;;3.80;;
17598;SDS011;8918;52.092;5.232;2023-02-28T06:09:09;4.83;;;4.10;;
17598;SDS011;8918;52.092;5.232;2023-02-28T06:11:36;6.50;;;3.67;;
17598;SDS011;8918;52.092;5.232;2023-02-28T06:14:02;6.03;;;3.73;;
17598;SDS011;8918;52.092;5.232;2023-02-28T06:16:28;4.43;;;3.90;;
17598;SDS011;8918;52.092;5.232;2023-02-28T06:18:59;5.23;;;3.63;;
17598;SDS011;8918;52.092;5.232;2023-02-28T06:21:26;5.53;;;4.10;;
17598;SDS011;8918;52.092;5.232;2023-02-28T06:23:53;5.57;;;3.90;;
17598;SDS011;8918;52.092;5.232;2023-02-28T06:26:19;5.00;;;3.90;;
17598;SDS011;8918;52.092;5.232;2023-02-28T06:28:45;5.97;;;4.00;;
17598;SDS011;8918;52.092;5.232;2023-02-28T06:31:12;4.50;;;3.83;;
17598;SDS011;8918;52.092;5.232;2023-02-28T06:33:40;4.90;;;4.20;;
17598;SDS011;8918;52.092;5.232;2023-02-28T06:36:07;8.03;;;4.50;;
17598;SDS011;8918;52.092;5.232;2023-02-28T06:38:33;5.27;;;4.60;;
17598;SDS011;8918;52.092;5.232;2023-02-28T06:41:00;7.93;;;4.47;;
17598;SDS011;8918;52.092;5.232;2023-02-28T06:43:27;6.07;;;4.80;;
17598;SDS011;8918;52.092;5.232;2023-02-28T06:45:55;5.17;;;4.13;;
17598;SDS011;8918;52.092;5.232;2023-02-28T06:48:22;5.43;;;4.20;;
17598;SDS011;8918;52.092;5.232;2023-02-28T06:50:48;5.50;;;4.17;;
17598;SDS011;8918;52.092;5.232;2023-02-28T06:53:14;6.73;;;4.27;;
17598;SDS011;8918;52.092;5.232;2023-02-28T06:55:40;7.57;;;4.60;;
17598;SDS011;8918;52.092;5.232;2023-02-28T06:58:06;5.23;;;4.37;;
17598;SDS011;8918;52.092;5.232;2023-02-28T07:00:39;6.43;;;4.50;;
17598;SDS011;8918;52.092;5.232;2023-02-28T07:03:08;5.50;;;4.60;;
17598;SDS011;8918;52.092;5.232;2023-02-28T07:05:35;5.60;;;4.60;;
17598;SDS011;8918;52.092;5.232;2023-02-28T07:08:02;5.73;;;4.60;;
17598;SDS011;8918;52.092;5.232;2023-02-28T07:10:29;6.93;;;4.47;;
17598;SDS011;8918;52.092;5.232;2023-02-28T07:12:55;6.47;;;4.50;;
17598;SDS011;8918;52.092;5.232;2023-02-28T07:15:20;5.87;;;4.70;;
17598;SDS011;8918;52.092;5.232;2023-02-28T07:17:46;6.17;;;4.50;;
17598;SDS011;8918;52.092;5.232;2023-02-28T07:20:12;6.83;;;4.53;;
17598;SDS011;8918;52.092;5.232;2023-02-28T07:22:37;8.07;;;4.83;;
17598;SDS011;8918;52.092;5.232;2023-02-28T07:25:04;8.37;;;5.20;;
17598;SDS011;8918;52.092;5.232;2023-02-28T07:27:30;8.83;;;5.00;;
17598;SDS011;8918;52.092;5.232;2023-02-28T07:29:55;4.93;;;4.27;;
17598;SDS011;8918;52.092;5.232;2023-02-28T07:32:21;7.43;;;4.87;;
17598;SDS011;8918;52.092;5.232;2023-02-28T07:34:47;6.83;;;4.40;;
17598;SDS011;8918;52.092;5.232;2023-02-28T07:37:13;7.00;;;4.97;;
17598;SDS011;8918;52.092;5.232;2023-02-28T07:39:39;6.73;;;4.60;;
17598;SDS011;8918;52.092;5.232;2023-02-28T07:42:08;9.93;;;5.13;;
17598;SDS011;8918;52.092;5.232;2023-02-28T07:44:36;8.63;;;4.60;;
17598;SDS011;8918;52.092;5.232;2023-02-28T07:47:05;5.73;;;4.80;;
17598;SDS011;8918;52.092;5.232;2023-02-28T07:49:37;8.03;;;5.00;;
17598;SDS011;8918;52.092;5.232;2023-02-28T07:52:06;7.57;;;5.40;;
17598;SDS011;8918;52.092;5.232;2023-02-28T07:54:32;8.67;;;5.20;;
17598;SDS011;8918;52.092;5.232;2023-02-28T07:56:58;11.03;;;6.03;;
17598;SDS011;8918;52.092;5.232;2023-02-28T07:59:24;9.47;;;6.53;;
17598;SDS011;8918;52.092;5.232;2023-02-28T08:01:49;9.23;;;6.47;;
17598;SDS011;8918;52.092;5.232;2023-02-28T08:04:16;9.93;;;5.70;;
17598;SDS011;8918;52.092;5.232;2023-02-28T08:06:43;6.60;;;5.30;;
17598;SDS011;8918;52.092;5.232;2023-02-28T08:09:08;6.40;;;5.43;;
17598;SDS011;8918;52.092;5.232;2023-02-28T08:11:34;8.07;;;5.33;;
17598;SDS011;8918;52.092;5.232;2023-02-28T08:14:00;6.27;;;4.90;;
17598;SDS011;8918;52.092;5.232;2023-02-28T08:16:25;8.27;;;4.87;;
17598;SDS011;8918;52.092;5.232;2023-02-28T08:18:51;8.83;;;5.77;;
17598;SDS011;8918;52.092;5.232;2023-02-28T08:21:17;5.90;;;5.03;;
17598;SDS011;8918;52.092;5.232;2023-02-28T08:23:46;6.03;;;4.73;;
17598;SDS011;8918;52.092;5.232;2023-02-28T08:26:13;8.13;;;4.97;;
17598;SDS011;8918;52.092;5.232;2023-02-28T08:28:39;5.73;;;4.17;;
17598;SDS011;8918;52.092;5.232;2023-02-28T08:31:09;6.67;;;4.40;;
17598;SDS011;8918;52.092;5.232;2023-02-28T08:33:35;8.33;;;4.70;;
17598;SDS011;8918;52.092;5.232;2023-02-28T08:36:01;5.60;;;4.23;;
17598;SDS011;8918;52.092;5.232;2023-02-28T08:38:27;6.87;;;4.30;;
17598;SDS011;8918;52.092;5.232;2023-02-28T08:41:00;7.93;;;3.97;;
17598;SDS011;8918;52.092;5.232;2023-02-28T08:43:28;5.40;;;3.90;;
17598;SDS011;8918;52.092;5.232;2023-02-28T08:45:54;6.80;;;4.00;;
17598;SDS011;8918;52.092;5.232;2023-02-28T08:48:24;6.20;;;3.60;;
17598;SDS011;8918;52.092;5.232;2023-02-28T08:51:15;5.57;;;3.50;;
17598;SDS011;8918;52.092;5.232;2023-02-28T08:53:43;4.23;;;3.60;;
17598;SDS011;8918;52.092;5.232;2023-02-28T08:56:11;6.30;;;3.87;;
17598;SDS011;8918;52.092;5.232;2023-02-28T08:58:39;4.23;;;3.83;;
17598;SDS011;8918;52.092;5.232;2023-02-28T09:01:13;4.97;;;3.70;;
17598;SDS011;8918;52.092;5.232;2023-02-28T09:03:40;4.70;;;3.57;;
17598;SDS011;8918;52.092;5.232;2023-02-28T09:06:07;5.07;;;3.60;;
17598;SDS011;8918;52.092;5.232;2023-02-28T09:08:33;5.00;;;3.50;;
17598;SDS011;8918;52.092;5.232;2023-02-28T09:10:58;5.00;;;3.50;;
17598;SDS011;8918;52.092;5.232;2023-02-28T09:13:25;5.03;;;3.50;;
17598;SDS011;8918;52.092;5.232;2023-02-28T09:15:51;6.40;;;3.63;;
17598;SDS011;8918;52.092;5.232;2023-02-28T09:18:17;5.80;;;3.60;;
17598;SDS011;8918;52.092;5.232;2023-02-28T09:20:43;5.07;;;3.30;;
17598;SDS011;8918;52.092;5.232;2023-02-28T09:23:09;5.20;;;3.20;;
17598;SDS011;8918;52.092;5.232;2023-02-28T09:25:35;5.40;;;3.63;;
17598;SDS011;8918;52.092;5.232;2023-02-28T09:28:01;6.57;;;3.10;;
17598;SDS011;8918;52.092;5.232;2023-02-28T09:30:28;3.70;;;3.00;;
17598;SDS011;8918;52.092;5.232;2023-02-28T09:32:54;4.83;;;3.30;;
17598;SDS011;8918;52.092;5.232;2023-02-28T09:35:23;5.20;;;3.40;;
17598;SDS011;8918;52.092;5.232;2023-02-28T09:37:50;3.33;;;2.60;;
17598;SDS011;8918;52.092;5.232;2023-02-28T09:40:17;3.80;;;2.80;;
17598;SDS011;8918;52.092;5.232;2023-02-28T09:42:49;4.20;;;2.60;;
17598;SDS011;8918;52.092;5.232;2023-02-28T09:47:49;3.97;;;2.60;;
17598;SDS011;8918;52.092;5.232;2023-02-28T09:53:13;3.73;;;2.70;;
17598;SDS011;8918;52.092;5.232;2023-02-28T09:55:49;4.80;;;2.47;;
17598;SDS011;8918;52.092;5.232;2023-02-28T09:58:28;2.60;;;2.40;;
17598;SDS011;8918;52.092;5.232;2023-02-28T10:01:10;4.57;;;2.77;;
17598;SDS011;8918;52.092;5.232;2023-02-28T10:03:47;3.13;;;2.40;;
17598;SDS011;8918;52.092;5.232;2023-02-28T10:06:20;2.93;;;1.93;;
17598;SDS011;8918;52.092;5.232;2023-02-28T10:09:03;2.20;;;1.60;;
17598;SDS011;8918;52.092;5.232;2023-02-28T10:11:34;2.77;;;1.53;;
17598;SDS011;8918;52.092;5.232;2023-02-28T10:14:03;3.00;;;1.80;;
17598;SDS011;8918;52.092;5.232;2023-02-28T10:16:39;3.37;;;1.90;;
17598;SDS011;8918;52.092;5.232;2023-02-28T10:19:20;2.30;;;1.57;;
17598;SDS011;8918;52.092;5.232;2023-02-28T10:24:30;1.70;;;1.57;;
17598;SDS011;8918;52.092;5.232;2023-02-28T10:27:01;2.33;;;2.00;;
17598;SDS011;8918;52.092;5.232;2023-02-28T10:29:40;3.17;;;1.80;;
17598;SDS011;8918;52.092;5.232;2023-02-28T10:32:09;2.17;;;1.80;;
17598;SDS011;8918;52.092;5.232;2023-02-28T10:34:39;1.93;;;1.73;;
17598;SDS011;8918;52.092;5.232;2023-02-28T10:37:04;2.80;;;1.70;;
17598;SDS011;8918;52.092;5.232;2023-02-28T10:39:41;2.23;;;1.67;;
17598;SDS011;8918;52.092;5.232;2023-02-28T10:44:55;2.37;;;1.73;;
17598;SDS011;8918;52.092;5.232;2023-02-28T10:47:57;2.00;;;1.80;;
17598;SDS011;8918;52.092;5.232;2023-02-28T10:50:39;2.20;;;1.95;;
17598;SDS011;8918;52.092;5.232;2023-02-28T11:01:22;3.80;;;2.10;;
17598;SDS011;8918;52.092;5.232;2023-02-28T11:04:00;3.60;;;2.08;;
17598;SDS011;8918;52.092;5.232;2023-02-28T11:06:30;2.30;;;2.10;;
17598;SDS011;8918;52.092;5.232;2023-02-28T11:09:15;2.65;;;2.08;;
17598;SDS011;8918;52.092;5.232;2023-02-28T11:11:48;2.60;;;1.90;;
17598;SDS011;8918;52.092;5.232;2023-02-28T11:14:19;4.18;;;2.20;;
17598;SDS011;8918;52.092;5.232;2023-02-28T11:16:53;2.45;;;2.10;;
17598;SDS011;8918;52.092;5.232;2023-02-28T11:19:22;2.47;;;2.28;;
17598;SDS011;8918;52.092;5.232;2023-02-28T11:21:56;2.60;;;2.28;;
17598;SDS011;8918;52.092;5.232;2023-02-28T11:24:32;2.33;;;2.13;;
17598;SDS011;8918;52.092;5.232;2023-02-28T11:27:01;2.45;;;2.08;;
17598;SDS011;8918;52.092;5.232;2023-02-28T11:29:28;2.17;;;1.98;;
17598;SDS011;8918;52.092;5.232;2023-02-28T11:32:03;3.30;;;2.20;;
17598;SDS011;8918;52.092;5.232;2023-02-28T11:34:35;2.13;;;1.92;;
17598;SDS011;8918;52.092;5.232;2023-02-28T11:37:02;2.67;;;1.80;;
17598;SDS011;8918;52.092;5.232;2023-02-28T11:39:30;2.38;;;1.83;;
17598;SDS011;8918;52.092;5.232;2023-02-28T11:42:04;2.10;;;1.90;;
17598;SDS011;8918;52.092;5.232;2023-02-28T11:51:06;2.45;;;2.10;;
17598;SDS011;8918;52.092;5.232;2023-02-28T11:56:58;2.65;;;2.20;;
17598;SDS011;8918;52.092;5.232;2023-02-28T12:05:02;3.45;;;2.00;;
17598;SDS011;8918;52.092;5.232;2023-02-28T12:10:57;3.17;;;2.13;;
17598;SDS011;8918;52.092;5.232;2023-02-28T12:13:43;3.05;;;2.03;;
17598;SDS011;8918;52.092;5.232;2023-02-28T12:19:25;4.35;;;2.10;;
17598;SDS011;8918;52.092;5.232;2023-02-28T12:24:25;1.92;;;1.83;;
17598;SDS011;8918;52.092;5.232;2023-02-28T12:26:54;2.60;;;1.80;;
17598;SDS011;8918;52.092;5.232;2023-02-28T12:29:28;2.13;;;1.92;;
17598;SDS011;8918;52.092;5.232;2023-02-28T12:31:58;2.00;;;1.80;;
17598;SDS011;8918;52.092;5.232;2023-02-28T12:34:38;2.90;;;1.73;;
17598;SDS011;8918;52.092;5.232;2023-02-28T12:37:10;2.03;;;1.80;;
17598;SDS011;8918;52.092;5.232;2023-02-28T12:39:49;2.20;;;1.90;;
17598;SDS011;8918;52.092;5.232;2023-02-28T12:42:24;2.08;;;1.80;;
17598;SDS011;8918;52.092;5.232;2023-02-28T12:45:15;1.73;;;1.63;;
17598;SDS011;8918;52.092;5.232;2023-02-28T12:48:03;2.22;;;2.03;;
17598;SDS011;8918;52.092;5.232;2023-02-28T12:50:33;1.98;;;1.80;;
17598;SDS011;8918;52.092;5.232;2023-02-28T12:58:32;2.20;;;2.00;;
17598;SDS011;8918;52.092;5.232;2023-02-28T13:04:27;2.53;;;2.30;;
17598;SDS011;8918;52.092;5.232;2023-02-28T13:06:33;2.83;;;1.90;;
17598;SDS011;8918;52.092;5.232;2023-02-28T13:09:23;2.53;;;2.20;;
17598;SDS011;8918;52.092;5.232;2023-02-28T13:11:52;2.20;;;2.00;;
17598;SDS011;8918;52.092;5.232;2023-02-28T13:14:20;2.00;;;1.80;;
17598;SDS011;8918;52.092;5.232;2023-02-28T13:19:29;3.40;;;1.83;;
17598;SDS011;8918;52.092;5.232;2023-02-28T13:21:58;4.78;;;2.35;;
17598;SDS011;8918;52.092;5.232;2023-02-28T13:24:38;2.75;;;2.05;;
17598;SDS011;8918;52.092;5.232;2023-02-28T13:29:34;2.95;;;2.13;;
17598;SDS011;8918;52.092;5.232;2023-02-28T13:34:31;2.47;;;2.13;;
17598;SDS011;8918;52.092;5.232;2023-02-28T13:47:36;2.75;;;2.40;;
17598;SDS011;8918;52.092;5.232;2023-02-28T13:50:15;2.30;;;2.10;;
17598;SDS011;8918;52.092;5.232;2023-02-28T13:56:01;2.95;;;2.35;;
17598;SDS011;8918;52.092;5.232;2023-02-28T13:58:42;5.13;;;2.72;;
17598;SDS011;8918;52.092;5.232;2023-02-28T14:01:25;2.85;;;2.50;;
17598;SDS011;8918;52.092;5.232;2023-02-28T14:07:20;3.60;;;2.45;;
17598;SDS011;8918;52.092;5.232;2023-02-28T14:12:57;2.50;;;2.30;;
17598;SDS011;8918;52.092;5.232;2023-02-28T14:15:41;3.88;;;2.80;;
17598;SDS011;8918;52.092;5.232;2023-02-28T14:18:24;4.00;;;2.70;;
17598;SDS011;8918;52.092;5.232;2023-02-28T14:20:54;4.72;;;3.08;;
17598;SDS011;8918;52.092;5.232;2023-02-28T14:26:01;2.43;;;2.20;;
17598;SDS011;8918;52.092;5.232;2023-02-28T14:28:44;2.77;;;2.37;;
17598;SDS011;8918;52.092;5.232;2023-02-28T14:31:29;2.90;;;2.20;;
17598;SDS011;8918;52.092;5.232;2023-02-28T14:34:13;3.63;;;2.20;;
17598;SDS011;8918;52.092;5.232;2023-02-28T14:36:58;2.20;;;2.00;;
17598;SDS011;8918;52.092;5.232;2023-02-28T14:39:26;3.17;;;2.20;;
17598;SDS011;8918;52.092;5.232;2023-02-28T14:41:55;3.03;;;2.20;;
17598;SDS011;8918;52.092;5.232;2023-02-28T14:44:28;3.53;;;2.47;;
17598;SDS011;8918;52.092;5.232;2023-02-28T14:46:57;3.03;;;2.30;;
17598;SDS011;8918;52.092;5.232;2023-02-28T14:49:38;2.93;;;2.37;;
17598;SDS011;8918;52.092;5.232;2023-02-28T14:54:35;3.80;;;2.70;;
17598;SDS011;8918;52.092;5.232;2023-02-28T14:57:02;3.37;;;2.40;;
17598;SDS011;8918;52.092;5.232;2023-02-28T14:59:29;3.43;;;2.30;;
17598;SDS011;8918;52.092;5.232;2023-02-28T15:04:41;2.00;;;1.80;;
17598;SDS011;8918;52.092;5.232;2023-02-28T15:07:08;2.87;;;2.10;;
17598;SDS011;8918;52.092;5.232;2023-02-28T15:09:39;3.33;;;2.17;;
17598;SDS011;8918;52.092;5.232;2023-02-28T15:12:04;4.27;;;2.50;;
17598;SDS011;8918;52.092;5.232;2023-02-28T15:14:31;2.30;;;2.10;;
17598;SDS011;8918;52.092;5.232;2023-02-28T15:17:02;2.67;;;2.10;;
17598;SDS011;8918;52.092;5.232;2023-02-28T15:19:32;5.20;;;2.20;;
17598;SDS011;8918;52.092;5.232;2023-02-28T15:22:04;2.53;;;2.03;;
17598;SDS011;8918;52.092;5.232;2023-02-28T15:24:48;2.53;;;2.23;;
17598;SDS011;8918;52.092;5.232;2023-02-28T15:27:24;3.13;;;2.23;;
17598;SDS011;8918;52.092;5.232;2023-02-28T15:29:56;3.77;;;2.40;;
17598;SDS011;8918;52.092;5.232;2023-02-28T15:34:56;3.37;;;2.07;;
17598;SDS011;8918;52.092;5.232;2023-02-28T15:39:55;2.20;;;2.00;;
17598;SDS011;8918;52.092;5.232;2023-02-28T15:42:22;2.30;;;2.10;;
17598;SDS011;8918;52.092;5.232;2023-02-28T15:44:52;3.37;;;2.10;;
17598;SDS011;8918;52.092;5.232;2023-02-28T15:47:22;2.50;;;2.17;;
17598;SDS011;8918;52.092;5.232;2023-02-28T15:49:51;2.30;;;2.00;;
17598;SDS011;8918;52.092;5.232;2023-02-28T15:52:21;3.63;;;2.10;;
17598;SDS011;8918;52.092;5.232;2023-02-28T15:54:51;4.00;;;2.00;;
17598;SDS011;8918;52.092;5.232;2023-02-28T15:57:23;2.67;;;2.07;;
17598;SDS011;8918;52.092;5.232;2023-02-28T15:59:52;3.30;;;2.40;;
17598;SDS011;8918;52.092;5.232;2023-02-28T16:02:22;3.53;;;2.20;;
17598;SDS011;8918;52.092;5.232;2023-02-28T16:07:27;2.60;;;2.07;;
17598;SDS011;8918;52.092;5.232;2023-02-28T16:09:54;2.57;;;2.00;;
17598;SDS011;8918;52.092;5.232;2023-02-28T16:12:20;2.83;;;2.00;;
17598;SDS011;8918;52.092;5.232;2023-02-28T16:14:52;2.10;;;1.90;;
17598;SDS011;8918;52.092;5.232;2023-02-28T16:17:24;3.93;;;2.17;;
17598;SDS011;8918;52.092;5.232;2023-02-28T16:19:51;3.97;;;1.80;;
17598;SDS011;8918;52.092;5.232;2023-02-28T16:22:17;2.73;;;2.00;;
17598;SDS011;8918;52.092;5.232;2023-02-28T16:24:43;3.47;;;2.30;;
17598;SDS011;8918;52.092;5.232;2023-02-28T16:27:11;3.17;;;2.00;;
17598;SDS011;8918;52.092;5.232;2023-02-28T16:29:41;2.83;;;2.00;;
17598;SDS011;8918;52.092;5.232;2023-02-28T16:32:07;2.90;;;2.07;;
17598;SDS011;8918;52.092;5.232;2023-02-28T16:34:33;2.57;;;2.17;;
17598;SDS011;8918;52.092;5.232;2023-02-28T16:36:58;3.03;;;2.00;;
17598;SDS011;8918;52.092;5.232;2023-02-28T16:39:24;2.17;;;1.93;;
17598;SDS011;8918;52.092;5.232;2023-02-28T16:41:50;2.67;;;1.93;;
17598;SDS011;8918;52.092;5.232;2023-02-28T16:44:27;4.83;;;2.20;;
17598;SDS011;8918;52.092;5.232;2023-02-28T16:46:54;3.80;;;2.30;;
17598;SDS011;8918;52.092;5.232;2023-02-28T16:49:19;4.70;;;2.47;;
17598;SDS011;8918;52.092;5.232;2023-02-28T16:51:45;3.53;;;2.40;;
17598;SDS011;8918;52.092;5.232;2023-02-28T16:54:11;3.50;;;2.77;;
17598;SDS011;8918;52.092;5.232;2023-02-28T16:56:37;3.50;;;2.70;;
17598;SDS011;8918;52.092;5.232;2023-02-28T16:59:08;2.93;;;2.40;;
17598;SDS011;8918;52.092;5.232;2023-02-28T17:01:35;3.73;;;2.60;;
17598;SDS011;8918;52.092;5.232;2023-02-28T17:04:00;2.77;;;2.30;;
17598;SDS011;8918;52.092;5.232;2023-02-28T17:06:27;4.00;;;2.50;;
17598;SDS011;8918;52.092;5.232;2023-02-28T17:08:54;2.50;;;2.20;;
17598;SDS011;8918;52.092;5.232;2023-02-28T17:11:20;3.27;;;2.27;;
17598;SDS011;8918;52.092;5.232;2023-02-28T17:13:46;4.57;;;2.40;;
17598;SDS011;8918;52.092;5.232;2023-02-28T17:16:28;2.50;;;2.30;;
17598;SDS011;8918;52.092;5.232;2023-02-28T17:19:00;2.73;;;2.47;;
17598;SDS011;8918;52.092;5.232;2023-02-28T17:21:29;4.07;;;2.80;;
17598;SDS011;8918;52.092;5.232;2023-02-28T17:23:56;3.83;;;2.90;;